createdAt,value
2022-09-15T00:02:16.668Z,164.0
2022-09-15T00:07:17.813Z,163.21708
2022-09-15T00:12:18.799Z,164.0
2022-09-15T00:17:19.724Z,163.21708
2022-09-15T00:22:20.664Z,164.0
2022-09-15T00:27:21.653Z,164.0
2022-09-15T00:32:22.846Z,164.78853
2022-09-15T00:37:23.765Z,164.78853
2022-09-15T00:42:24.843Z,164.78853
2022-09-15T00:47:25.988Z,164.78853
2022-09-15T00:52:27.078Z,165.58273
2022-09-15T00:57:28.135Z,164.78853
2022-09-15T01:02:29.209Z,164.78853
2022-09-15T01:07:30.151Z,164.78853
2022-09-15T01:12:31.277Z,164.78853
2022-09-15T01:17:32.205Z,165.58273
2022-09-15T01:22:33.193Z,164.78853
2022-09-15T01:27:41.602Z,165.58273
2022-09-15T01:32:43.085Z,164.78853
2022-09-15T01:37:44.153Z,165.58273
2022-09-15T01:42:45.158Z,165.58273
2022-09-15T01:47:46.172Z,165.58273
2022-09-15T01:52:47.242Z,165.58273
2022-09-15T01:57:48.153Z,165.58273
2022-09-15T02:02:49.292Z,166.38267
2022-09-15T02:07:50.212Z,166.38267
2022-09-15T02:12:51.284Z,166.38267
2022-09-15T02:17:52.233Z,167.18841
2022-09-15T02:22:53.158Z,166.38267
2022-09-15T02:27:54.208Z,166.38267
2022-09-15T02:32:55.144Z,166.38267
2022-09-15T02:37:56.064Z,166.38267
2022-09-15T02:42:57.071Z,165.58273
2022-09-15T02:47:58.049Z,166.38267
2022-09-15T02:52:58.997Z,167.18841
2022-09-15T02:58:00.034Z,167.18841
2022-09-15T03:03:00.990Z,167.18841
2022-09-15T03:08:01.949Z,167.18841
2022-09-15T03:13:03.100Z,167.18841
2022-09-15T03:18:04.084Z,167.18841
2022-09-15T03:23:05.149Z,167.18841
2022-09-15T03:28:06.118Z,167.18841
2022-09-15T03:33:07.262Z,167.18841
2022-09-15T03:38:08.212Z,167.18841
2022-09-15T03:43:09.204Z,168.0
2022-09-15T03:48:10.185Z,168.0
2022-09-15T03:53:11.128Z,168.0
2022-09-15T03:58:12.032Z,167.18841
2022-09-15T04:03:12.968Z,167.18841
2022-09-15T04:08:13.884Z,168.81752
2022-09-15T04:13:14.898Z,168.81752
2022-09-15T04:18:15.923Z,168.0
2022-09-15T04:23:16.806Z,168.0
2022-09-15T04:28:17.810Z,168.0
2022-09-15T04:33:18.934Z,168.0
2022-09-15T04:38:19.873Z,168.0
2022-09-15T04:43:20.897Z,168.81752
2022-09-15T04:48:21.861Z,168.0
2022-09-15T04:53:23.073Z,168.0
2022-09-15T04:58:24.000Z,168.0
2022-09-15T05:03:25.025Z,168.81752
2022-09-15T05:08:25.936Z,168.0
2022-09-15T05:13:26.965Z,168.81752
2022-09-15T05:18:27.902Z,169.64103
2022-09-15T05:23:29.022Z,168.81752
2022-09-15T05:28:30.168Z,168.81752
2022-09-15T05:33:31.258Z,168.81752
2022-09-15T05:38:32.312Z,168.81752
2022-09-15T05:43:33.416Z,168.81752
2022-09-15T05:48:34.442Z,168.0
2022-09-15T05:53:35.447Z,168.0
2022-09-15T05:58:36.365Z,168.0
2022-09-15T06:03:37.390Z,167.18841
2022-09-15T06:08:40.531Z,167.18841
2022-09-15T06:13:44.708Z,167.18841
2022-09-15T06:18:45.983Z,166.38267
2022-09-15T06:23:50.712Z,165.58273
2022-09-15T06:28:51.988Z,164.78853
2022-09-15T06:33:53.267Z,164.78853
2022-09-15T06:38:54.457Z,165.58273
2022-09-15T06:43:55.447Z,165.58273
2022-09-15T06:48:56.462Z,164.78853
2022-09-15T06:53:57.535Z,164.78853
2022-09-15T06:58:58.555Z,165.58273
2022-09-15T07:03:59.550Z,164.78853
2022-09-15T07:09:00.503Z,164.78853
2022-09-15T07:14:01.675Z,167.18841
2022-09-15T07:19:02.614Z,166.38267
2022-09-15T07:24:07.030Z,164.78853
2022-09-15T07:29:08.640Z,167.18841
2022-09-15T07:34:09.579Z,165.58273
2022-09-15T07:39:10.580Z,163.21708
2022-09-15T07:44:11.516Z,160.90141
2022-09-15T07:49:12.665Z,160.14035
2022-09-15T07:54:16.265Z,162.43972
2022-09-15T07:59:19.646Z,162.43972
2022-09-15T08:04:20.675Z,163.21708
2022-09-15T08:09:21.618Z,162.43972
2022-09-15T08:14:22.740Z,161.66784
2022-09-15T08:19:23.821Z,161.66784
2022-09-15T08:29:25.287Z,159.38462
2022-09-15T08:34:26.324Z,159.38462
2022-09-15T08:39:27.330Z,160.90141
2022-09-15T08:44:28.647Z,162.43972
2022-09-15T08:49:47.832Z,161.66784
2022-09-15T08:54:52.374Z,161.66784
2022-09-15T08:59:53.389Z,166.38267
2022-09-15T09:04:54.430Z,164.0
2022-09-15T09:09:55.368Z,161.66784
2022-09-15T09:14:56.302Z,162.43972
2022-09-15T09:19:57.232Z,161.66784
2022-09-15T09:24:58.234Z,162.43972
2022-09-15T09:29:59.222Z,164.0
2022-09-15T09:35:00.225Z,164.78853
2022-09-15T09:40:01.294Z,165.58273
2022-09-15T09:45:02.418Z,167.18841
2022-09-15T09:50:03.500Z,166.38267
2022-09-15T09:55:04.591Z,164.78853
2022-09-15T10:00:05.512Z,164.78853
2022-09-15T10:05:06.614Z,165.58273
2022-09-15T10:10:07.786Z,164.78853
2022-09-15T10:15:08.763Z,164.78853
2022-09-15T10:20:10.401Z,166.38267
2022-09-15T10:25:11.405Z,169.64103
2022-09-15T10:30:12.446Z,165.58273
2022-09-15T10:35:13.680Z,163.21708
2022-09-15T10:40:14.615Z,162.43972
2022-09-15T10:45:15.608Z,160.90141
2022-09-15T10:50:16.613Z,165.58273
2022-09-15T10:55:24.812Z,168.0
2022-09-15T11:00:38.148Z,166.38267
2022-09-15T11:05:39.125Z,164.0
2022-09-15T11:10:40.040Z,168.0
2022-09-15T11:15:42.184Z,168.0
2022-09-15T11:20:43.257Z,164.0
2022-09-15T11:25:44.169Z,168.0
2022-09-15T11:30:47.803Z,166.38267
2022-09-15T11:35:49.200Z,167.18841
2022-09-15T11:40:50.256Z,166.38267
2022-09-15T11:45:51.236Z,165.58273
2022-09-15T11:50:52.158Z,164.0
2022-09-15T11:55:53.165Z,165.58273
2022-09-15T12:00:54.062Z,166.38267
2022-09-15T12:05:54.986Z,172.14815
2022-09-15T12:10:55.937Z,171.30627
2022-09-15T12:15:57.487Z,170.47059
2022-09-15T12:20:58.564Z,168.81752
2022-09-15T12:25:59.463Z,168.0
2022-09-15T12:31:00.502Z,172.99628
2022-09-15T12:36:01.614Z,168.81752
2022-09-15T12:41:02.533Z,165.58273
2022-09-15T12:46:03.711Z,164.78853
2022-09-15T12:51:04.598Z,164.78853
2022-09-15T12:56:05.489Z,164.78853
2022-09-15T13:01:18.088Z,163.21708
2022-09-15T13:06:19.818Z,167.18841
2022-09-15T13:11:20.762Z,168.81752
2022-09-15T13:16:21.728Z,168.81752
2022-09-15T13:21:22.734Z,170.47059
2022-09-15T13:26:23.949Z,168.0
2022-09-15T13:31:24.929Z,169.64103
2022-09-15T13:36:26.630Z,168.81752
2022-09-15T13:41:27.721Z,169.64103
2022-09-15T13:46:28.942Z,167.18841
2022-09-15T13:51:29.979Z,169.64103
2022-09-15T14:01:45.351Z,167.18841
2022-09-15T14:06:46.355Z,166.38267
2022-09-15T14:11:47.298Z,169.64103
2022-09-15T14:16:48.523Z,171.30627
2022-09-15T14:21:49.478Z,171.30627
2022-09-15T14:26:50.368Z,170.47059
2022-09-15T14:31:51.479Z,171.30627
2022-09-15T14:36:52.509Z,170.47059
2022-09-15T14:41:53.473Z,168.0
2022-09-15T14:46:54.418Z,166.38267
2022-09-15T14:51:55.335Z,170.47059
2022-09-15T14:56:58.299Z,172.99628
2022-09-15T15:01:59.309Z,168.81752
2022-09-15T15:07:00.265Z,168.0
2022-09-15T15:12:01.237Z,171.30627
2022-09-15T15:17:02.696Z,172.14815
2022-09-15T15:22:03.671Z,170.47059
2022-09-15T15:27:04.686Z,169.64103
2022-09-15T15:32:05.650Z,171.30627
2022-09-15T15:37:06.612Z,172.14815
2022-09-15T15:42:07.543Z,172.99628
2022-09-15T15:47:08.550Z,170.47059
2022-09-15T15:52:09.620Z,171.30627
2022-09-15T15:57:10.696Z,178.22053
2022-09-15T16:02:11.839Z,179.1145
2022-09-15T16:07:12.869Z,174.71161
2022-09-15T16:12:13.789Z,172.99628
2022-09-15T16:17:15.091Z,172.14815
2022-09-15T16:22:16.017Z,170.47059
2022-09-15T16:27:16.930Z,170.47059
2022-09-15T16:32:17.867Z,171.30627
2022-09-15T16:37:18.869Z,171.30627
2022-09-15T16:42:19.782Z,172.14815
2022-09-15T16:47:21.083Z,170.47059
2022-09-15T16:52:22.352Z,172.14815
2022-09-15T16:57:23.766Z,171.30627
2022-09-15T17:02:24.984Z,171.30627
2022-09-15T17:07:25.989Z,172.99628
2022-09-15T17:12:26.961Z,175.57895
2022-09-15T17:17:28.436Z,177.33333
2022-09-15T17:22:29.583Z,175.57895
2022-09-15T17:27:30.461Z,173.85075
2022-09-15T17:32:34.776Z,175.57895
2022-09-15T17:37:35.986Z,174.71161
2022-09-15T17:42:36.982Z,178.22053
2022-09-15T17:47:37.869Z,175.57895
2022-09-15T17:52:38.888Z,174.71161
2022-09-15T17:57:40.707Z,174.71161
2022-09-15T18:02:41.677Z,177.33333
2022-09-15T18:07:47.724Z,176.45283
2022-09-15T18:12:50.108Z,177.33333
2022-09-15T18:17:53.390Z,175.57895
2022-09-15T18:22:54.319Z,174.71161
2022-09-15T18:27:55.247Z,174.71161
2022-09-15T18:32:56.145Z,176.45283
2022-09-15T18:37:57.115Z,178.22053
2022-09-15T18:42:58.049Z,178.22053
2022-09-15T18:47:58.968Z,179.1145
2022-09-15T18:53:00.017Z,179.1145
2022-09-15T18:58:01.313Z,178.22053
2022-09-15T19:03:02.479Z,175.57895
2022-09-15T19:08:03.373Z,173.85075
2022-09-15T19:13:04.358Z,174.71161
2022-09-15T19:18:05.298Z,176.45283
2022-09-15T19:23:06.333Z,178.22053
2022-09-15T19:28:07.278Z,176.45283
2022-09-15T19:33:08.220Z,174.71161
2022-09-15T19:38:09.118Z,174.71161
2022-09-15T19:43:10.017Z,174.71161
2022-09-15T19:48:11.016Z,173.85075
2022-09-15T19:53:12.001Z,174.71161
2022-09-15T19:58:12.908Z,174.71161
2022-09-15T20:03:13.800Z,172.99628
2022-09-15T20:08:15.265Z,172.99628
2022-09-15T20:13:16.326Z,173.85075
2022-09-15T20:18:17.296Z,172.99628
2022-09-15T20:23:18.312Z,172.99628
2022-09-15T20:28:19.243Z,172.14815
2022-09-15T20:33:20.169Z,172.99628
2022-09-15T20:38:21.234Z,172.14815
2022-09-15T20:43:22.169Z,172.99628
2022-09-15T20:48:24.061Z,172.99628
2022-09-15T20:53:26.457Z,172.99628
2022-09-15T20:58:27.530Z,172.99628
2022-09-15T21:03:28.474Z,173.85075
2022-09-15T21:08:29.443Z,173.85075
2022-09-15T21:13:30.380Z,173.85075
2022-09-15T21:18:31.284Z,173.85075
2022-09-15T21:23:32.230Z,172.99628
2022-09-15T21:28:33.146Z,172.99628
2022-09-15T21:33:34.031Z,172.99628
2022-09-15T21:38:34.940Z,172.14815
2022-09-15T21:43:36.050Z,172.99628
2022-09-15T21:48:37.102Z,172.99628
2022-09-15T21:53:38.123Z,172.99628
2022-09-15T21:58:42.647Z,172.99628
2022-09-15T22:03:44.642Z,172.14815
2022-09-15T22:08:45.866Z,172.99628
2022-09-15T22:13:47.030Z,174.71161
2022-09-15T22:18:48.241Z,172.99628
2022-09-15T22:23:49.196Z,173.85075
2022-09-15T22:28:50.118Z,174.71161
2022-09-15T22:33:51.057Z,174.71161
2022-09-15T22:38:52.020Z,174.71161
2022-09-15T22:43:53.058Z,174.71161
2022-09-15T22:48:54.001Z,176.45283
2022-09-15T22:53:55.027Z,175.57895
2022-09-15T22:58:56.127Z,175.57895
2022-09-15T23:03:57.279Z,176.45283
2022-09-15T23:08:58.267Z,177.33333
2022-09-15T23:13:59.185Z,178.22053
2022-09-15T23:19:00.111Z,177.33333
2022-09-15T23:24:01.145Z,179.1145
2022-09-15T23:29:02.081Z,178.22053
2022-09-15T23:34:03.070Z,177.33333
2022-09-15T23:39:04.057Z,176.45283
2022-09-15T23:44:05.441Z,179.1145
2022-09-15T23:49:06.344Z,178.22053
2022-09-15T23:54:07.281Z,178.22053
2022-09-15T23:59:08.330Z,177.33333
